sensor_id;sensor_type;location;lat;lon;timestamp;pressure;altitude;pressure_sealevel;temperature;humidity
50226;BME280;36113;50.742;6.432;2023-02-27T00:00:30;112741.81;;;-145.50;81.90
50226;BME280;36113;50.742;6.432;2023-02-27T00:02:56;112741.81;;;-145.50;81.99
50226;BME280;36113;50.742;6.432;2023-02-27T00:05:22;112741.81;;;-145.50;82.23
50226;BME280;36113;50.742;6.432;2023-02-27T00:07:47;112741.81;;;-145.50;82.34
50226;BME280;36113;50.742;6.432;2023-02-27T00:10:13;112741.81;;;-145.50;82.28
50226;BME280;36113;50.742;6.432;2023-02-27T00:12:39;112741.81;;;-145.50;82.50
50226;BME280;36113;50.742;6.432;2023-02-27T00:15:13;112741.81;;;-145.50;82.81
50226;BME280;36113;50.742;6.432;2023-02-27T00:17:39;112741.81;;;-145.50;82.90
50226;BME280;36113;50.742;6.432;2023-02-27T00:20:07;112741.81;;;-145.50;82.70
50226;BME280;36113;50.742;6.432;2023-02-27T00:22:35;112741.81;;;-145.50;83.04
50226;BME280;36113;50.742;6.432;2023-02-27T00:25:00;112741.81;;;-145.50;83.12
50226;BME280;36113;50.742;6.432;2023-02-27T00:27:26;112741.81;;;-145.50;83.44
50226;BME280;36113;50.742;6.432;2023-02-27T00:29:51;112741.81;;;-145.50;83.81
50226;BME280;36113;50.742;6.432;2023-02-27T00:32:16;112741.81;;;-145.50;83.89
50226;BME280;36113;50.742;6.432;2023-02-27T00:34:42;112741.81;;;-145.50;83.89
50226;BME280;36113;50.742;6.432;2023-02-27T00:37:07;112741.81;;;-145.50;83.99
50226;BME280;36113;50.742;6.432;2023-02-27T00:39:33;112741.81;;;-145.50;84.19
50226;BME280;36113;50.742;6.432;2023-02-27T00:41:58;112741.81;;;-145.50;84.21
50226;BME280;36113;50.742;6.432;2023-02-27T00:44:23;112741.81;;;-145.50;84.19
50226;BME280;36113;50.742;6.432;2023-02-27T00:46:49;112741.81;;;-145.50;84.21
50226;BME280;36113;50.742;6.432;2023-02-27T00:49:14;112741.81;;;-145.50;84.40
50226;BME280;36113;50.742;6.432;2023-02-27T00:51:40;112741.81;;;-145.50;84.68
50226;BME280;36113;50.742;6.432;2023-02-27T00:54:05;112741.81;;;-145.50;84.76
50226;BME280;36113;50.742;6.432;2023-02-27T00:56:30;112741.81;;;-145.50;84.86
50226;BME280;36113;50.742;6.432;2023-02-27T00:58:56;112741.81;;;-145.50;84.96
50226;BME280;36113;50.742;6.432;2023-02-27T01:01:21;112741.81;;;-145.50;85.06
50226;BME280;36113;50.742;6.432;2023-02-27T01:03:46;112741.81;;;-145.50;85.13
50226;BME280;36113;50.742;6.432;2023-02-27T01:06:12;112741.81;;;-145.50;85.35
50226;BME280;36113;50.742;6.432;2023-02-27T01:08:37;112741.81;;;-145.50;85.41
50226;BME280;36113;50.742;6.432;2023-02-27T01:11:02;112741.81;;;-145.50;85.71
50226;BME280;36113;50.742;6.432;2023-02-27T01:13:28;112741.81;;;-145.50;85.86
50226;BME280;36113;50.742;6.432;2023-02-27T01:15:53;112741.81;;;-145.50;86.01
50226;BME280;36113;50.742;6.432;2023-02-27T01:18:18;112741.81;;;-145.50;86.14
50226;BME280;36113;50.742;6.432;2023-02-27T01:20:44;112741.81;;;-145.50;86.42
50226;BME280;36113;50.742;6.432;2023-02-27T01:23:09;112741.81;;;-145.50;86.84
50226;BME280;36113;50.742;6.432;2023-02-27T01:25:34;112741.81;;;-145.50;86.94
50226;BME280;36113;50.742;6.432;2023-02-27T01:28:00;112741.81;;;-145.50;87.40
50226;BME280;36113;50.742;6.432;2023-02-27T01:30:25;112741.81;;;-145.50;87.52
50226;BME280;36113;50.742;6.432;2023-02-27T01:32:51;112741.81;;;-145.50;87.69
50226;BME280;36113;50.742;6.432;2023-02-27T01:35:16;112741.81;;;-145.50;87.48
50226;BME280;36113;50.742;6.432;2023-02-27T01:37:42;112741.81;;;-145.50;87.55
50226;BME280;36113;50.742;6.432;2023-02-27T01:40:08;112741.81;;;-145.50;87.71
50226;BME280;36113;50.742;6.432;2023-02-27T01:42:34;112741.81;;;-145.50;87.75
50226;BME280;36113;50.742;6.432;2023-02-27T01:47:39;112741.81;;;-145.50;88.37
50226;BME280;36113;50.742;6.432;2023-02-27T01:50:06;112741.81;;;-145.50;88.77
50226;BME280;36113;50.742;6.432;2023-02-27T01:52:33;112741.81;;;-145.50;88.74
50226;BME280;36113;50.742;6.432;2023-02-27T01:54:59;112741.81;;;-145.50;88.87
50226;BME280;36113;50.742;6.432;2023-02-27T01:57:25;112741.81;;;-145.50;89.09
50226;BME280;36113;50.742;6.432;2023-02-27T01:59:51;112741.81;;;-145.50;89.14
50226;BME280;36113;50.742;6.432;2023-02-27T02:02:25;112741.81;;;-145.50;89.47
50226;BME280;36113;50.742;6.432;2023-02-27T02:04:53;112741.81;;;-145.50;89.54
50226;BME280;36113;50.742;6.432;2023-02-27T02:07:19;112741.81;;;-145.50;89.51
50226;BME280;36113;50.742;6.432;2023-02-27T02:09:55;112741.81;;;-145.50;89.46
50226;BME280;36113;50.742;6.432;2023-02-27T02:12:25;112741.81;;;-145.50;89.65
50226;BME280;36113;50.742;6.432;2023-02-27T02:14:50;112741.81;;;-145.50;89.54
50226;BME280;36113;50.742;6.432;2023-02-27T02:22:50;112741.81;;;-145.50;89.83
50226;BME280;36113;50.742;6.432;2023-02-27T02:33:46;112741.81;;;-145.50;90.28
50226;BME280;36113;50.742;6.432;2023-02-27T02:36:41;112741.81;;;-145.50;90.30
50226;BME280;36113;50.742;6.432;2023-02-27T02:39:22;112741.81;;;-145.50;90.03
50226;BME280;36113;50.742;6.432;2023-02-27T02:41:58;112741.81;;;-145.50;90.35
50226;BME280;36113;50.742;6.432;2023-02-27T02:45:02;112741.81;;;-145.50;90.39
50226;BME280;36113;50.742;6.432;2023-02-27T02:55:28;112741.81;;;-145.50;90.54
50226;BME280;36113;50.742;6.432;2023-02-27T02:58:13;112741.81;;;-145.50;90.72
50226;BME280;36113;50.742;6.432;2023-02-27T03:00:47;112741.81;;;-145.50;91.27
50226;BME280;36113;50.742;6.432;2023-02-27T03:03:25;112741.81;;;-145.50;91.25
50226;BME280;36113;50.742;6.432;2023-02-27T03:06:03;112741.81;;;-145.50;91.05
50226;BME280;36113;50.742;6.432;2023-02-27T03:08:33;112741.81;;;-145.50;91.10
50226;BME280;36113;50.742;6.432;2023-02-27T03:11:02;112741.81;;;-145.50;91.03
50226;BME280;36113;50.742;6.432;2023-02-27T03:13:39;112741.81;;;-145.50;91.25
50226;BME280;36113;50.742;6.432;2023-02-27T03:16:22;112741.81;;;-145.50;91.26
50226;BME280;36113;50.742;6.432;2023-02-27T03:18:55;112741.81;;;-145.50;91.63
50226;BME280;36113;50.742;6.432;2023-02-27T03:21:25;112741.81;;;-145.50;91.47
50226;BME280;36113;50.742;6.432;2023-02-27T03:23:53;112741.81;;;-145.50;91.67
50226;BME280;36113;50.742;6.432;2023-02-27T03:26:23;112741.81;;;-145.50;92.10
50226;BME280;36113;50.742;6.432;2023-02-27T03:28:59;112741.81;;;-145.50;92.40
50226;BME280;36113;50.742;6.432;2023-02-27T03:31:46;112741.81;;;-145.50;92.43
50226;BME280;36113;50.742;6.432;2023-02-27T03:34:32;112741.81;;;-145.50;92.49
50226;BME280;36113;50.742;6.432;2023-02-27T03:42:13;112741.81;;;-145.50;92.84
50226;BME280;36113;50.742;6.432;2023-02-27T03:44:50;112741.81;;;-145.50;92.90
50226;BME280;36113;50.742;6.432;2023-02-27T03:47:18;112741.81;;;-145.50;93.09
50226;BME280;36113;50.742;6.432;2023-02-27T03:49:44;112741.81;;;-145.50;93.33
50226;BME280;36113;50.742;6.432;2023-02-27T03:52:10;112741.81;;;-145.50;93.10
50226;BME280;36113;50.742;6.432;2023-02-27T03:54:38;112741.81;;;-145.50;93.07
50226;BME280;36113;50.742;6.432;2023-02-27T03:57:08;112741.81;;;-145.50;92.90
50226;BME280;36113;50.742;6.432;2023-02-27T03:59:36;112741.81;;;-145.50;93.07
50226;BME280;36113;50.742;6.432;2023-02-27T04:02:01;112741.81;;;-145.50;93.08
50226;BME280;36113;50.742;6.432;2023-02-27T04:04:29;112741.81;;;-145.50;93.07
50226;BME280;36113;50.742;6.432;2023-02-27T04:07:14;112741.81;;;-145.50;93.27
50226;BME280;36113;50.742;6.432;2023-02-27T04:10:18;112741.81;;;-145.50;93.75
50226;BME280;36113;50.742;6.432;2023-02-27T04:15:36;112741.81;;;-145.50;93.84
50226;BME280;36113;50.742;6.432;2023-02-27T04:20:44;112741.81;;;-145.50;94.36
50226;BME280;36113;50.742;6.432;2023-02-27T04:23:19;112741.81;;;-145.50;94.28
50226;BME280;36113;50.742;6.432;2023-02-27T04:25:52;112741.81;;;-145.50;94.21
50226;BME280;36113;50.742;6.432;2023-02-27T04:28:30;112741.81;;;-145.50;94.42
50226;BME280;36113;50.742;6.432;2023-02-27T04:31:15;112741.81;;;-145.50;94.39
50226;BME280;36113;50.742;6.432;2023-02-27T04:36:22;112741.81;;;-145.50;94.98
50226;BME280;36113;50.742;6.432;2023-02-27T04:38:56;112741.81;;;-145.50;95.22
50226;BME280;36113;50.742;6.432;2023-02-27T04:41:46;112741.81;;;-145.50;95.30
50226;BME280;36113;50.742;6.432;2023-02-27T04:44:14;112741.81;;;-145.50;95.25
50226;BME280;36113;50.742;6.432;2023-02-27T04:46:42;112741.81;;;-145.50;95.33
50226;BME280;36113;50.742;6.432;2023-02-27T04:49:31;112741.81;;;-145.50;95.45
50226;BME280;36113;50.742;6.432;2023-02-27T04:52:07;112741.81;;;-145.50;95.43
50226;BME280;36113;50.742;6.432;2023-02-27T04:57:07;112741.81;;;-145.50;95.22
50226;BME280;36113;50.742;6.432;2023-02-27T04:59:41;112741.81;;;-145.50;95.43
50226;BME280;36113;50.742;6.432;2023-02-27T05:02:15;112741.81;;;-145.50;95.49
50226;BME280;36113;50.742;6.432;2023-02-27T05:04:43;112741.81;;;-145.50;95.35
50226;BME280;36113;50.742;6.432;2023-02-27T05:07:16;112741.81;;;-145.50;95.22
50226;BME280;36113;50.742;6.432;2023-02-27T05:09:48;112741.81;;;-145.50;95.08
50226;BME280;36113;50.742;6.432;2023-02-27T05:12:21;112741.81;;;-145.50;95.59
50226;BME280;36113;50.742;6.432;2023-02-27T05:14:54;112741.81;;;-145.50;95.88
50226;BME280;36113;50.742;6.432;2023-02-27T05:17:25;112741.81;;;-145.50;95.49
50226;BME280;36113;50.742;6.432;2023-02-27T05:19:53;112741.81;;;-145.50;95.50
50226;BME280;36113;50.742;6.432;2023-02-27T05:22:25;112741.81;;;-145.50;95.53
50226;BME280;36113;50.742;6.432;2023-02-27T05:25:01;112741.81;;;-145.50;95.52
50226;BME280;36113;50.742;6.432;2023-02-27T05:27:50;112741.81;;;-145.50;95.47
50226;BME280;36113;50.742;6.432;2023-02-27T05:30:24;112741.81;;;-145.50;95.64
50226;BME280;36113;50.742;6.432;2023-02-27T05:32:59;112741.81;;;-145.50;95.59
50226;BME280;36113;50.742;6.432;2023-02-27T05:35:51;112741.81;;;-145.50;95.42
50226;BME280;36113;50.742;6.432;2023-02-27T05:38:20;112741.81;;;-145.50;95.49
50226;BME280;36113;50.742;6.432;2023-02-27T05:40:56;112741.81;;;-145.50;95.69
50226;BME280;36113;50.742;6.432;2023-02-27T05:45:56;112741.81;;;-145.50;95.84
50226;BME280;36113;50.742;6.432;2023-02-27T05:48:26;112741.81;;;-145.50;96.04
50226;BME280;36113;50.742;6.432;2023-02-27T05:50:54;112741.81;;;-145.50;95.97
50226;BME280;36113;50.742;6.432;2023-02-27T05:53:21;112741.81;;;-145.50;95.84
50226;BME280;36113;50.742;6.432;2023-02-27T05:55:52;112741.81;;;-145.50;96.06
50226;BME280;36113;50.742;6.432;2023-02-27T05:58:25;112741.81;;;-145.50;95.91
50226;BME280;36113;50.742;6.432;2023-02-27T06:01:00;112741.81;;;-145.50;96.04
50226;BME280;36113;50.742;6.432;2023-02-27T06:03:27;112741.81;;;-145.50;96.16
50226;BME280;36113;50.742;6.432;2023-02-27T06:05:53;112741.81;;;-145.50;96.06
50226;BME280;36113;50.742;6.432;2023-02-27T06:08:21;112741.81;;;-145.50;95.99
50226;BME280;36113;50.742;6.432;2023-02-27T06:10:47;112741.81;;;-145.50;96.26
50226;BME280;36113;50.742;6.432;2023-02-27T06:13:14;112741.81;;;-145.50;96.54
50226;BME280;36113;50.742;6.432;2023-02-27T06:15:41;112741.81;;;-145.50;96.50
50226;BME280;36113;50.742;6.432;2023-02-27T06:18:08;112741.81;;;-145.50;96.41
50226;BME280;36113;50.742;6.432;2023-02-27T06:20:34;112741.81;;;-145.50;96.26
50226;BME280;36113;50.742;6.432;2023-02-27T06:22:59;112741.81;;;-145.50;96.46
50226;BME280;36113;50.742;6.432;2023-02-27T06:25:24;112741.81;;;-145.50;96.26
50226;BME280;36113;50.742;6.432;2023-02-27T06:27:50;112741.81;;;-145.50;96.48
50226;BME280;36113;50.742;6.432;2023-02-27T06:30:16;112741.81;;;-145.50;96.30
50226;BME280;36113;50.742;6.432;2023-02-27T06:32:41;112741.81;;;-145.50;96.21
50226;BME280;36113;50.742;6.432;2023-02-27T06:35:07;112741.81;;;-145.50;96.21
50226;BME280;36113;50.742;6.432;2023-02-27T06:37:32;112741.81;;;-145.50;96.36
50226;BME280;36113;50.742;6.432;2023-02-27T06:39:57;112741.81;;;-145.50;96.34
50226;BME280;36113;50.742;6.432;2023-02-27T06:42:23;112741.81;;;-145.50;96.36
50226;BME280;36113;50.742;6.432;2023-02-27T06:44:48;112741.81;;;-145.50;96.51
50226;BME280;36113;50.742;6.432;2023-02-27T06:47:13;112741.81;;;-145.50;96.54
50226;BME280;36113;50.742;6.432;2023-02-27T06:49:39;112741.81;;;-145.50;96.76
50226;BME280;36113;50.742;6.432;2023-02-27T06:52:04;112741.81;;;-145.50;96.69
50226;BME280;36113;50.742;6.432;2023-02-27T06:54:30;112741.81;;;-145.50;96.56
50226;BME280;36113;50.742;6.432;2023-02-27T06:56:55;112741.81;;;-145.50;96.59
50226;BME280;36113;50.742;6.432;2023-02-27T06:59:20;112741.81;;;-145.50;96.43
50226;BME280;36113;50.742;6.432;2023-02-27T07:01:46;112741.81;;;-145.50;96.19
50226;BME280;36113;50.742;6.432;2023-02-27T07:04:13;112741.81;;;-145.50;96.16
50226;BME280;36113;50.742;6.432;2023-02-27T07:06:38;112741.81;;;-145.50;96.13
50226;BME280;36113;50.742;6.432;2023-02-27T07:09:04;112741.81;;;-145.50;96.24
50226;BME280;36113;50.742;6.432;2023-02-27T07:11:29;112741.81;;;-145.50;96.25
50226;BME280;36113;50.742;6.432;2023-02-27T07:13:54;112741.81;;;-145.50;96.22
50226;BME280;36113;50.742;6.432;2023-02-27T07:16:20;112741.81;;;-145.50;95.86
50226;BME280;36113;50.742;6.432;2023-02-27T07:18:45;112741.81;;;-145.50;95.48
50226;BME280;36113;50.742;6.432;2023-02-27T07:21:10;112741.81;;;-145.50;95.34
50226;BME280;36113;50.742;6.432;2023-02-27T07:23:36;112741.81;;;-145.50;95.31
50226;BME280;36113;50.742;6.432;2023-02-27T07:26:02;112741.81;;;-145.50;94.76
50226;BME280;36113;50.742;6.432;2023-02-27T07:28:27;112741.81;;;-145.50;94.29
50226;BME280;36113;50.742;6.432;2023-02-27T07:30:53;112741.81;;;-145.50;94.20
50226;BME280;36113;50.742;6.432;2023-02-27T07:33:19;112741.81;;;-145.50;93.83
50226;BME280;36113;50.742;6.432;2023-02-27T07:35:46;112741.81;;;-145.50;93.91
50226;BME280;36113;50.742;6.432;2023-02-27T07:38:11;112741.81;;;-145.50;93.80
50226;BME280;36113;50.742;6.432;2023-02-27T07:40:36;112741.81;;;-145.50;93.34
50226;BME280;36113;50.742;6.432;2023-02-27T07:43:02;112741.81;;;-145.50;93.37
50226;BME280;36113;50.742;6.432;2023-02-27T07:45:27;112741.81;;;-145.50;92.73
50226;BME280;36113;50.742;6.432;2023-02-27T07:47:53;112741.81;;;-145.50;92.46
50226;BME280;36113;50.742;6.432;2023-02-27T07:50:19;112741.81;;;-145.50;92.15
50226;BME280;36113;50.742;6.432;2023-02-27T07:52:44;112741.81;;;-145.50;91.82
50226;BME280;36113;50.742;6.432;2023-02-27T07:55:12;112741.81;;;-145.50;91.07
50226;BME280;36113;50.742;6.432;2023-02-27T07:57:37;112741.81;;;-145.50;91.19
50226;BME280;36113;50.742;6.432;2023-02-27T08:00:04;112741.81;;;-145.50;90.38
50226;BME280;36113;50.742;6.432;2023-02-27T08:02:31;112741.81;;;-145.50;89.33
50226;BME280;36113;50.742;6.432;2023-02-27T08:04:56;112741.81;;;-145.50;89.56
50226;BME280;36113;50.742;6.432;2023-02-27T08:07:22;112741.81;;;-145.50;89.39
50226;BME280;36113;50.742;6.432;2023-02-27T08:09:47;112741.81;;;-145.50;89.15
50226;BME280;36113;50.742;6.432;2023-02-27T08:12:12;112741.81;;;-145.50;88.95
50226;BME280;36113;50.742;6.432;2023-02-27T08:14:38;112741.81;;;-145.50;88.57
50226;BME280;36113;50.742;6.432;2023-02-27T08:17:03;112741.81;;;-145.50;89.09
50226;BME280;36113;50.742;6.432;2023-02-27T08:19:29;112741.81;;;-145.50;88.14
50226;BME280;36113;50.742;6.432;2023-02-27T08:21:54;112741.81;;;-145.50;87.15
50226;BME280;36113;50.742;6.432;2023-02-27T08:24:20;112741.81;;;-145.50;86.21
50226;BME280;36113;50.742;6.432;2023-02-27T08:26:45;112741.81;;;-145.50;85.97
50226;BME280;36113;50.742;6.432;2023-02-27T08:29:11;112741.81;;;-145.50;86.60
50226;BME280;36113;50.742;6.432;2023-02-27T08:31:36;112741.81;;;-145.50;85.63
50226;BME280;36113;50.742;6.432;2023-02-27T08:34:01;112741.81;;;-145.50;85.24
50226;BME280;36113;50.742;6.432;2023-02-27T08:36:26;112741.81;;;-145.50;84.65
50226;BME280;36113;50.742;6.432;2023-02-27T08:38:52;112741.81;;;-145.50;83.40
50226;BME280;36113;50.742;6.432;2023-02-27T08:41:17;112741.81;;;-145.50;82.98
50226;BME280;36113;50.742;6.432;2023-02-27T08:43:42;112741.81;;;-145.50;83.26
50226;BME280;36113;50.742;6.432;2023-02-27T08:46:08;112741.81;;;-145.50;83.79
50226;BME280;36113;50.742;6.432;2023-02-27T08:48:33;112741.81;;;-145.50;82.75
50226;BME280;36113;50.742;6.432;2023-02-27T08:50:58;112741.81;;;-145.50;83.14
50226;BME280;36113;50.742;6.432;2023-02-27T08:53:24;112741.81;;;-145.50;83.29
50226;BME280;36113;50.742;6.432;2023-02-27T08:55:49;112741.81;;;-145.50;81.46
50226;BME280;36113;50.742;6.432;2023-02-27T08:58:15;112741.81;;;-145.50;80.81
50226;BME280;36113;50.742;6.432;2023-02-27T09:00:40;112741.81;;;-145.50;79.06
50226;BME280;36113;50.742;6.432;2023-02-27T09:03:06;112741.81;;;-145.50;79.41
50226;BME280;36113;50.742;6.432;2023-02-27T09:05:31;112741.81;;;-145.50;80.18
50226;BME280;36113;50.742;6.432;2023-02-27T09:07:59;112741.81;;;-145.50;80.21
50226;BME280;36113;50.742;6.432;2023-02-27T09:10:25;112741.81;;;-145.50;79.08
50226;BME280;36113;50.742;6.432;2023-02-27T09:12:51;112741.81;;;-145.50;79.19
50226;BME280;36113;50.742;6.432;2023-02-27T09:15:16;112741.81;;;-145.50;78.69
50226;BME280;36113;50.742;6.432;2023-02-27T09:17:42;112741.81;;;-145.50;76.09
50226;BME280;36113;50.742;6.432;2023-02-27T09:20:08;112741.81;;;-145.50;77.50
50226;BME280;36113;50.742;6.432;2023-02-27T09:22:34;112741.81;;;-145.50;76.95
50226;BME280;36113;50.742;6.432;2023-02-27T09:25:00;112741.81;;;-145.50;75.89
50226;BME280;36113;50.742;6.432;2023-02-27T09:27:25;112741.81;;;-145.50;74.82
50226;BME280;36113;50.742;6.432;2023-02-27T09:29:50;112741.81;;;-145.50;74.50
50226;BME280;36113;50.742;6.432;2023-02-27T09:32:24;112741.81;;;-145.50;74.71
50226;BME280;36113;50.742;6.432;2023-02-27T09:34:49;112741.81;;;-145.50;75.36
50226;BME280;36113;50.742;6.432;2023-02-27T09:37:15;112741.81;;;-145.50;74.05
50226;BME280;36113;50.742;6.432;2023-02-27T09:39:41;112741.81;;;-145.50;73.71
50226;BME280;36113;50.742;6.432;2023-02-27T09:42:22;112741.81;;;-145.50;73.88
50226;BME280;36113;50.742;6.432;2023-02-27T09:44:55;112741.81;;;-145.50;74.80
50226;BME280;36113;50.742;6.432;2023-02-27T09:47:37;112741.81;;;-145.50;74.54
50226;BME280;36113;50.742;6.432;2023-02-27T09:50:07;112741.81;;;-145.50;75.49
50226;BME280;36113;50.742;6.432;2023-02-27T09:52:42;112741.81;;;-145.50;73.65
50226;BME280;36113;50.742;6.432;2023-02-27T09:55:15;112741.81;;;-145.50;72.18
50226;BME280;36113;50.742;6.432;2023-02-27T10:03:38;112741.81;;;-145.50;67.26
50226;BME280;36113;50.742;6.432;2023-02-27T10:06:24;112741.81;;;-145.50;65.46
50226;BME280;36113;50.742;6.432;2023-02-27T10:09:24;112741.81;;;-145.50;63.97
50226;BME280;36113;50.742;6.432;2023-02-27T10:14:46;112741.81;;;-145.50;62.71
50226;BME280;36113;50.742;6.432;2023-02-27T10:17:23;112741.81;;;-145.50;62.69
50226;BME280;36113;50.742;6.432;2023-02-27T10:19:52;112741.81;;;-145.50;63.27
50226;BME280;36113;50.742;6.432;2023-02-27T10:22:28;112741.81;;;-145.50;62.97
50226;BME280;36113;50.742;6.432;2023-02-27T10:24:59;112741.81;;;-145.50;64.57
50226;BME280;36113;50.742;6.432;2023-02-27T10:27:29;112741.81;;;-145.50;63.02
50226;BME280;36113;50.742;6.432;2023-02-27T10:30:19;112741.81;;;-145.50;63.98
50226;BME280;36113;50.742;6.432;2023-02-27T10:32:45;112741.81;;;-145.50;65.62
50226;BME280;36113;50.742;6.432;2023-02-27T10:37:53;112741.81;;;-145.50;63.93
50226;BME280;36113;50.742;6.432;2023-02-27T10:40:20;112741.81;;;-145.50;62.15
50226;BME280;36113;50.742;6.432;2023-02-27T10:42:50;112741.81;;;-145.50;64.01
50226;BME280;36113;50.742;6.432;2023-02-27T10:45:16;112741.81;;;-145.50;63.66
50226;BME280;36113;50.742;6.432;2023-02-27T10:47:41;112741.81;;;-145.50;62.64
50226;BME280;36113;50.742;6.432;2023-02-27T10:52:54;112741.81;;;-145.50;58.18
50226;BME280;36113;50.742;6.432;2023-02-27T10:55:31;112741.81;;;-145.50;57.43
50226;BME280;36113;50.742;6.432;2023-02-27T10:57:58;112741.81;;;-145.50;58.05
50226;BME280;36113;50.742;6.432;2023-02-27T11:00:31;112741.81;;;-145.50;57.91
50226;BME280;36113;50.742;6.432;2023-02-27T11:02:59;112741.81;;;-145.50;58.33
50226;BME280;36113;50.742;6.432;2023-02-27T11:05:34;112741.81;;;-145.50;57.88
50226;BME280;36113;50.742;6.432;2023-02-27T11:08:29;112741.81;;;-145.50;58.86
50226;BME280;36113;50.742;6.432;2023-02-27T11:11:06;112741.81;;;-145.50;57.28
50226;BME280;36113;50.742;6.432;2023-02-27T11:13:43;112741.81;;;-145.50;58.42
50226;BME280;36113;50.742;6.432;2023-02-27T11:18:36;112741.81;;;-145.50;58.55
50226;BME280;36113;50.742;6.432;2023-02-27T11:24:03;112741.81;;;-145.50;59.06
50226;BME280;36113;50.742;6.432;2023-02-27T11:27:00;112741.81;;;-145.50;59.44
50226;BME280;36113;50.742;6.432;2023-02-27T11:29:29;112741.81;;;-145.50;58.57
50226;BME280;36113;50.742;6.432;2023-02-27T11:31:56;112741.81;;;-145.50;60.21
50226;BME280;36113;50.742;6.432;2023-02-27T11:37:18;112741.81;;;-145.50;62.43
50226;BME280;36113;50.742;6.432;2023-02-27T11:39:50;112741.81;;;-145.50;60.87
50226;BME280;36113;50.742;6.432;2023-02-27T11:44:50;112741.81;;;-145.50;65.19
50226;BME280;36113;50.742;6.432;2023-02-27T11:47:30;112741.81;;;-145.50;63.02
50226;BME280;36113;50.742;6.432;2023-02-27T11:52:49;112741.81;;;-145.50;61.00
50226;BME280;36113;50.742;6.432;2023-02-27T11:55:18;112741.81;;;-145.50;60.88
50226;BME280;36113;50.742;6.432;2023-02-27T11:57:48;112741.81;;;-145.50;60.26
50226;BME280;36113;50.742;6.432;2023-02-27T12:03:22;112741.81;;;-145.50;59.11
50226;BME280;36113;50.742;6.432;2023-02-27T12:05:47;112741.81;;;-145.50;60.49
50226;BME280;36113;50.742;6.432;2023-02-27T12:10:51;112741.81;;;-145.50;58.07
50226;BME280;36113;50.742;6.432;2023-02-27T12:13:25;112741.81;;;-145.50;56.51
50226;BME280;36113;50.742;6.432;2023-02-27T12:16:02;112741.81;;;-145.50;57.79
50226;BME280;36113;50.742;6.432;2023-02-27T12:18:34;112741.81;;;-145.50;56.59
50226;BME280;36113;50.742;6.432;2023-02-27T12:21:12;112741.81;;;-145.50;56.35
50226;BME280;36113;50.742;6.432;2023-02-27T12:26:25;112741.81;;;-145.50;57.57
50226;BME280;36113;50.742;6.432;2023-02-27T12:28:57;112741.81;;;-145.50;56.53
50226;BME280;36113;50.742;6.432;2023-02-27T12:34:19;112741.81;;;-145.50;57.62
50226;BME280;36113;50.742;6.432;2023-02-27T12:36:51;112741.81;;;-145.50;59.56
50226;BME280;36113;50.742;6.432;2023-02-27T12:39:18;112741.81;;;-145.50;60.10
50226;BME280;36113;50.742;6.432;2023-02-27T12:42:25;112741.81;;;-145.50;58.88
50226;BME280;36113;50.742;6.432;2023-02-27T12:54:02;112741.81;;;-145.50;59.18
50226;BME280;36113;50.742;6.432;2023-02-27T12:57:00;112741.81;;;-145.50;60.33
50226;BME280;36113;50.742;6.432;2023-02-27T12:59:39;112741.81;;;-145.50;57.52
50226;BME280;36113;50.742;6.432;2023-02-27T13:02:33;112741.81;;;-145.50;58.07
50226;BME280;36113;50.742;6.432;2023-02-27T13:10:38;112741.81;;;-145.50;55.47
50226;BME280;36113;50.742;6.432;2023-02-27T13:13:24;112741.81;;;-145.50;56.44
50226;BME280;36113;50.742;6.432;2023-02-27T13:16:00;112741.81;;;-145.50;55.79
50226;BME280;36113;50.742;6.432;2023-02-27T13:26:49;112741.81;;;-145.50;55.05
50226;BME280;36113;50.742;6.432;2023-02-27T13:29:17;112741.81;;;-145.50;51.96
50226;BME280;36113;50.742;6.432;2023-02-27T13:38:03;112741.81;;;-145.50;50.82
50226;BME280;36113;50.742;6.432;2023-02-27T13:40:48;112741.81;;;-145.50;52.05
50226;BME280;36113;50.742;6.432;2023-02-27T13:43:33;112741.81;;;-145.50;51.58
50226;BME280;36113;50.742;6.432;2023-02-27T13:46:24;112741.81;;;-145.50;52.46
50226;BME280;36113;50.742;6.432;2023-02-27T13:48:50;112741.81;;;-145.50;52.56
50226;BME280;36113;50.742;6.432;2023-02-27T13:56:46;112741.81;;;-145.50;52.40
50226;BME280;36113;50.742;6.432;2023-02-27T13:59:18;112741.81;;;-145.50;51.41
50226;BME280;36113;50.742;6.432;2023-02-27T14:01:57;112741.81;;;-145.50;52.17
50226;BME280;36113;50.742;6.432;2023-02-27T14:04:25;112741.81;;;-145.50;52.46
50226;BME280;36113;50.742;6.432;2023-02-27T14:06:57;112741.81;;;-145.50;52.71
50226;BME280;36113;50.742;6.432;2023-02-27T14:09:24;112741.81;;;-145.50;54.22
50226;BME280;36113;50.742;6.432;2023-02-27T14:11:59;112741.81;;;-145.50;53.99
50226;BME280;36113;50.742;6.432;2023-02-27T14:14:47;112741.81;;;-145.50;54.26
50226;BME280;36113;50.742;6.432;2023-02-27T14:20:46;112741.81;;;-145.50;53.30
50226;BME280;36113;50.742;6.432;2023-02-27T14:23:19;112741.81;;;-145.50;54.47
50226;BME280;36113;50.742;6.432;2023-02-27T14:28:25;112741.81;;;-145.50;53.02
50226;BME280;36113;50.742;6.432;2023-02-27T14:31:00;112741.81;;;-145.50;53.22
50226;BME280;36113;50.742;6.432;2023-02-27T14:33:30;112741.81;;;-145.50;54.38
50226;BME280;36113;50.742;6.432;2023-02-27T14:36:03;112741.81;;;-145.50;54.68
50226;BME280;36113;50.742;6.432;2023-02-27T14:38:31;112741.81;;;-145.50;54.79
50226;BME280;36113;50.742;6.432;2023-02-27T14:43:36;112741.81;;;-145.50;54.58
50226;BME280;36113;50.742;6.432;2023-02-27T14:46:13;112741.81;;;-145.50;56.40
50226;BME280;36113;50.742;6.432;2023-02-27T14:48:40;112741.81;;;-145.50;57.32
50226;BME280;36113;50.742;6.432;2023-02-27T14:51:05;112741.81;;;-145.50;56.92